Terminal Aerodrome Forecast
Issued by NWS

Home | Current Version | Previous Version | Graphics & Text | Print | Product List | Glossary On
Versions: 1 2 3 4 5 6 7 8 9 10 11 12 13 14 15 16 17 18 19 20 21 22 23 24 25
000
FTUS43 KBIS 291100
TAFDIK
TAF
KDIK 291123Z 2912/3012 17009KT P6SM SCT250
     FM291500 20008KT P6SM BKN100
     FM291800 24010KT P6SM SCT035 BKN080
     FM300500 31010KT P6SM BKN025 OVC035
     FM300900 32010KT P6SM BKN015 OVC025=

USA.gov is the U.S. government's official web portal to all federal, state and local government web resources and services.